AAL2941 KSTL-KDFW
Flight info
| Callsign | AAL2941 |
|---|---|
| Flight time | N/A |
| Altitude | 28000 |
| Route | JAHNY6 MAP RZC FSM KOMMA RRNET BRDJE5 |
| Aircraft | B738/M-SDE2E3FGHIRWXY/LB1 |
Departure
| Time | 2026-05-07 16:55 |
|---|---|
| Airport | St. Louis Lambert International Airport (KSTL) |
Arrival
| Time | N/A |
|---|---|
| Airport | Dallas Fort Worth International Airport (KDFW) |
| Time | Latitude | Longitude | Altitude | Speed | Heading |
|---|---|---|---|---|---|
| 2026-05-07 16:27 | 38.74477 | -90.36732 | 551 ft | 0 kts | 259° |
| 2026-05-07 16:46 | 38.74478 | -90.36727 | 550 ft | 2 kts | 255° |
| 2026-05-07 16:46 | 38.74484 | -90.36710 | 550 ft | 2 kts | 246° |
| 2026-05-07 16:46 | 38.74489 | -90.36692 | 550 ft | 2 kts | 250° |
| 2026-05-07 16:47 | 38.74495 | -90.36674 | 550 ft | 2 kts | 248° |
| 2026-05-07 16:47 | 38.74501 | -90.36656 | 550 ft | 2 kts | 249° |
| 2026-05-07 16:47 | 38.74506 | -90.36638 | 549 ft | 2 kts | 249° |
| 2026-05-07 16:47 | 38.74512 | -90.36620 | 549 ft | 2 kts | 249° |
| 2026-05-07 16:48 | 38.74517 | -90.36603 | 548 ft | 2 kts | 249° |
| 2026-05-07 16:48 | 38.74522 | -90.36588 | 548 ft | 0 kts | 248° |
| 2026-05-07 16:48 | 38.74523 | -90.36580 | 548 ft | 0 kts | 299° |
| 2026-05-07 16:48 | 38.74520 | -90.36574 | 548 ft | 0 kts | 303° |
| 2026-05-07 16:49 | 38.74520 | -90.36575 | 548 ft | 0 kts | 303° |
| 2026-05-07 16:50 | 38.74520 | -90.36577 | 548 ft | 1 kts | 280° |
| 2026-05-07 16:50 | 38.74482 | -90.36524 | 547 ft | 22 kts | 103° |
| 2026-05-07 16:51 | 38.74387 | -90.36306 | 547 ft | 30 kts | 123° |
| 2026-05-07 16:51 | 38.74279 | -90.36085 | 547 ft | 27 kts | 122° |
| 2026-05-07 16:51 | 38.74181 | -90.35887 | 547 ft | 25 kts | 122° |
| 2026-05-07 16:51 | 38.74082 | -90.35687 | 547 ft | 27 kts | 122° |
| 2026-05-07 16:52 | 38.73972 | -90.35471 | 550 ft | 30 kts | 123° |
| 2026-05-07 16:52 | 38.73857 | -90.35237 | 555 ft | 29 kts | 122° |
| 2026-05-07 16:52 | 38.73755 | -90.35029 | 563 ft | 24 kts | 121° |
| 2026-05-07 16:52 | 38.73672 | -90.34862 | 574 ft | 19 kts | 121° |
| 2026-05-07 16:53 | 38.73681 | -90.34759 | 580 ft | 7 kts | 50° |
| 2026-05-07 16:53 | 38.73692 | -90.34745 | 580 ft | 0 kts | 47° |
| 2026-05-07 16:54 | 38.73693 | -90.34744 | 580 ft | 1 kts | 46° |
| 2026-05-07 16:54 | 38.73745 | -90.34694 | 582 ft | 18 kts | 33° |
| 2026-05-07 16:54 | 38.73813 | -90.34769 | 575 ft | 21 kts | 281° |
| 2026-05-07 16:54 | 38.73941 | -90.34978 | 562 ft | 51 kts | 303° |
| 2026-05-07 16:55 | 38.74281 | -90.35667 | 547 ft | 128 kts | 302° |
| 2026-05-07 16:55 | 38.74868 | -90.36848 | 620 ft | 179 kts | 302° |
| 2026-05-07 16:55 | 38.75508 | -90.38162 | 1610 ft | 170 kts | 297° |
| 2026-05-07 16:55 | 38.76105 | -90.39448 | 2362 ft | 177 kts | 298° |
| 2026-05-07 16:56 | 38.76788 | -90.40844 | 2848 ft | 192 kts | 301° |
| 2026-05-07 16:56 | 38.77526 | -90.42324 | 3385 ft | 206 kts | 300° |
| 2026-05-07 16:56 | 38.78051 | -90.46009 | 4380 ft | 237 kts | 254° |
| 2026-05-07 16:57 | 38.77240 | -90.47898 | 5000 ft | 249 kts | 237° |
| 2026-05-07 16:57 | 38.76218 | -90.49749 | 5644 ft | 263 kts | 238° |
| 2026-05-07 16:57 | 38.75149 | -90.51636 | 6497 ft | 266 kts | 233° |
| 2026-05-07 16:57 | 38.73832 | -90.53292 | 7362 ft | 270 kts | 223° |
| 2026-05-07 16:58 | 38.72364 | -90.54773 | 8216 ft | 273 kts | 222° |
| 2026-05-07 16:58 | 38.70844 | -90.56287 | 9049 ft | 276 kts | 223° |
| 2026-05-07 16:58 | 38.69344 | -90.57809 | 9882 ft | 278 kts | 224° |
| 2026-05-07 16:58 | 38.67836 | -90.59351 | 10530 ft | 286 kts | 225° |
| 2026-05-07 16:59 | 38.66254 | -90.60977 | 11012 ft | 300 kts | 225° |
| 2026-05-07 16:59 | 38.64576 | -90.62699 | 11470 ft | 314 kts | 225° |
| 2026-05-07 16:59 | 38.62854 | -90.64465 | 11925 ft | 328 kts | 225° |
| 2026-05-07 16:59 | 38.61027 | -90.66337 | 12334 ft | 343 kts | 224° |
| 2026-05-07 17:00 | 38.59148 | -90.68259 | 12917 ft | 351 kts | 224° |
| 2026-05-07 17:00 | 38.57246 | -90.70195 | 13706 ft | 353 kts | 224° |
| 2026-05-07 17:00 | 38.55312 | -90.72164 | 14419 ft | 357 kts | 225° |
| 2026-05-07 17:00 | 38.53355 | -90.74161 | 15113 ft | 362 kts | 225° |
| 2026-05-07 17:01 | 38.51407 | -90.76148 | 15821 ft | 364 kts | 225° |
| 2026-05-07 17:01 | 38.49432 | -90.78162 | 16475 ft | 369 kts | 225° |
| 2026-05-07 17:01 | 38.47414 | -90.80217 | 17155 ft | 372 kts | 225° |
| 2026-05-07 17:01 | 38.45381 | -90.82288 | 17756 ft | 377 kts | 225° |
| 2026-05-07 17:02 | 38.43332 | -90.84370 | 18469 ft | 378 kts | 225° |
| 2026-05-07 17:02 | 38.41275 | -90.86459 | 19070 ft | 382 kts | 226° |
| 2026-05-07 17:02 | 38.39196 | -90.88569 | 19793 ft | 382 kts | 226° |
| 2026-05-07 17:02 | 38.37117 | -90.90677 | 20367 ft | 386 kts | 226° |
| 2026-05-07 17:03 | 38.35034 | -90.92789 | 20944 ft | 389 kts | 226° |
| 2026-05-07 17:03 | 38.32923 | -90.94926 | 21608 ft | 389 kts | 226° |
| 2026-05-07 17:03 | 38.30798 | -90.97076 | 22169 ft | 391 kts | 226° |
| 2026-05-07 17:03 | 38.28621 | -90.99236 | 22695 ft | 396 kts | 224° |
| 2026-05-07 17:04 | 38.26363 | -91.01272 | 23250 ft | 400 kts | 223° |
| 2026-05-07 17:04 | 38.24048 | -91.03274 | 23755 ft | 403 kts | 222° |
| 2026-05-07 17:04 | 38.21725 | -91.05275 | 24254 ft | 406 kts | 222° |
| 2026-05-07 17:04 | 38.19395 | -91.07290 | 24727 ft | 409 kts | 223° |
| 2026-05-07 17:05 | 38.17028 | -91.09345 | 25242 ft | 411 kts | 223° |
| 2026-05-07 17:05 | 38.14671 | -91.11394 | 25744 ft | 412 kts | 223° |
| 2026-05-07 17:05 | 38.12318 | -91.13444 | 26171 ft | 416 kts | 223° |
| 2026-05-07 17:05 | 38.09903 | -91.15547 | 26640 ft | 418 kts | 223° |
| 2026-05-07 17:06 | 38.07497 | -91.17642 | 27137 ft | 419 kts | 223° |
| 2026-05-07 17:06 | 38.05097 | -91.19744 | 27519 ft | 422 kts | 224° |
| 2026-05-07 17:06 | 38.02771 | -91.21990 | 27959 ft | 419 kts | 228° |
| 2026-05-07 17:06 | 38.00615 | -91.24459 | 28072 ft | 418 kts | 232° |
| 2026-05-07 17:07 | 37.96581 | -91.29642 | 28079 ft | 407 kts | 233° |
| 2026-05-07 17:07 | 37.92662 | -91.34817 | 28071 ft | 406 kts | 233° |
| 2026-05-07 17:08 | 37.88754 | -91.39969 | 28070 ft | 407 kts | 233° |
| 2026-05-07 17:08 | 37.84827 | -91.45134 | 28068 ft | 406 kts | 233° |
| 2026-05-07 17:09 | 37.80912 | -91.50277 | 28071 ft | 407 kts | 233° |
| 2026-05-07 17:09 | 37.76984 | -91.55430 | 28068 ft | 407 kts | 233° |
| 2026-05-07 17:10 | 37.73056 | -91.60577 | 28063 ft | 406 kts | 233° |
| 2026-05-07 17:10 | 37.69121 | -91.65721 | 28071 ft | 406 kts | 233° |
| 2026-05-07 17:11 | 37.65220 | -91.70822 | 28076 ft | 406 kts | 233° |
| 2026-05-07 17:11 | 37.61279 | -91.75957 | 28067 ft | 406 kts | 233° |
| 2026-05-07 17:12 | 37.57669 | -91.81343 | 28074 ft | 399 kts | 239° |
| 2026-05-07 17:12 | 37.54485 | -91.87013 | 28074 ft | 399 kts | 241° |
| 2026-05-07 17:13 | 37.51298 | -91.92744 | 28075 ft | 399 kts | 241° |
| 2026-05-07 17:13 | 37.48096 | -91.98483 | 28080 ft | 400 kts | 240° |
| 2026-05-07 17:14 | 37.44915 | -92.04160 | 28077 ft | 399 kts | 240° |
| 2026-05-07 17:14 | 37.41718 | -92.09866 | 28076 ft | 400 kts | 240° |
| 2026-05-07 17:15 | 37.38509 | -92.15579 | 28073 ft | 398 kts | 240° |
| 2026-05-07 17:15 | 37.35314 | -92.21252 | 28077 ft | 400 kts | 240° |
| 2026-05-07 17:16 | 37.32106 | -92.26939 | 28079 ft | 398 kts | 240° |
| 2026-05-07 17:16 | 37.28917 | -92.32583 | 28077 ft | 398 kts | 240° |
| 2026-05-07 17:17 | 37.25699 | -92.38276 | 28076 ft | 400 kts | 240° |
| 2026-05-07 17:17 | 37.22496 | -92.43918 | 28074 ft | 399 kts | 240° |
| 2026-05-07 17:18 | 37.19269 | -92.49600 | 28078 ft | 400 kts | 240° |
| 2026-05-07 17:18 | 37.16049 | -92.55263 | 28078 ft | 400 kts | 240° |
| 2026-05-07 17:19 | 37.12814 | -92.60941 | 28081 ft | 401 kts | 240° |
| 2026-05-07 17:19 | 37.09558 | -92.66644 | 28078 ft | 401 kts | 240° |
| 2026-05-07 17:20 | 37.06301 | -92.72353 | 28080 ft | 401 kts | 239° |
| 2026-05-07 17:20 | 37.03072 | -92.77985 | 28077 ft | 402 kts | 240° |